Time;durP1;ratioP1;P1;durP2;ratioP2;P2;SDS_P1;SDS_P2;PMS_P1;PMS_P2;Temp;Humidity;BMP_temperature;BMP_pressure;BME280_temperature;BME280_humidity;BME280_pressure;Samples;Min_cycle;Max_cycle;Signal;HPM_P1;HPM_P2
2022/01/31 00:00:23;;;;;;;;;;;;;;;;;;4990767;28;19914;-80
2022/01/31 00:02:49;;;;;;;;;;;;;;;;;;4993265;28;20370;-80
2022/01/31 00:05:15;;;;;;;;;;;;;;;;;;4993040;28;19980;-80
2022/01/31 00:07:41;;;;;;;;;;;;;;;;;;4992311;28;19914;-80
2022/01/31 00:10:09;;;;;;;;;;;;;;;;;;4992590;28;19997;-79
2022/01/31 00:12:45;;;;;;;;;;;;;;;;;;4992369;28;19914;-79
2022/01/31 00:15:11;;;;;;;;;;;;;;;;;;4992185;28;20008;-79
2022/01/31 00:17:37;;;;;;;;;;;;;;;;;;4992643;28;19910;-80
2022/01/31 00:20:03;;;;;;;;;;;;;;;;;;4992751;28;19914;-80
2022/01/31 00:22:29;;;;;;;;;;;;;;;;;;4991259;28;19964;-79
2022/01/31 00:24:55;;;;;;;;;;;;;;;;;;4993243;28;19996;-80
2022/01/31 00:27:21;;;;;;;;;;;;;;;;;;4991926;28;20358;-80
2022/01/31 00:29:47;;;;;;;;;;;;;;;;;;4992333;28;19910;-79
2022/01/31 00:32:12;;;;;;;;;;;;;;;;;;4991578;28;19914;-80
2022/01/31 00:34:39;;;;;;;;;;;;;;;;;;4992367;28;20265;-80
2022/01/31 00:37:05;;;;;;;;;;;;;;;;;;4992946;28;19914;-79
2022/01/31 00:39:34;;;;;;;;;;;;;;;;;;4992281;28;19945;-80
2022/01/31 00:42:02;;;;;;;;;;;;;;;;;;4992468;28;19917;-79
2022/01/31 00:44:38;;;;;;;;;;;;;;;;;;4992142;28;19917;-79
2022/01/31 00:47:15;;;;;;;;;;;;;;;;;;4992211;28;19914;-79
2022/01/31 00:49:48;;;;;;;;;;;;;;;;;;4992197;28;19910;-79
2022/01/31 00:52:14;;;;;;;;;;;;;;;;;;4992221;28;19916;-80
2022/01/31 00:54:40;;;;;;;;;;;;;;;;;;4992307;28;19914;-79
2022/01/31 00:57:06;;;;;;;;;;;;;;;;;;4991250;28;19945;-79
2022/01/31 00:59:32;;;;;;;;;;;;;;;;;;4993260;28;20014;-79
2022/01/31 01:01:58;;;;;;;;;;;;;;;;;;4996114;28;19969;-80
2022/01/31 01:04:24;;;;;;;;;;;;;;;;;;4995987;28;20285;-79
2022/01/31 01:06:49;;;;;;;;;;;;;;;;;;5007258;28;19967;-79
2022/01/31 01:09:15;;;;;;;;;;;;;;;;;;5015449;28;20004;-80
2022/01/31 01:11:41;;;;;;;;;;;;;;;;;;5001024;28;19914;-79
2022/01/31 01:14:07;;;;;;;;;;;;;;;;;;4995887;28;19959;-80
2022/01/31 01:16:33;;;;;;;;;;;;;;;;;;4995755;28;19976;-79
2022/01/31 01:18:59;;;;;;;;;;;;;;;;;;4995621;28;19945;-80
2022/01/31 01:21:25;;;;;;;;;;;;;;;;;;4995661;28;20429;-79
2022/01/31 01:23:51;;;;;;;;;;;;;;;;;;4994342;28;19914;-79
2022/01/31 01:26:18;;;;;;;;;;;;;;;;;;4995401;28;19910;-79
2022/01/31 01:28:45;;;;;;;;;;;;;;;;;;4995435;28;20047;-79
2022/01/31 01:31:11;;;;;;;;;;;;;;;;;;4995368;28;19913;-80
2022/01/31 01:33:40;;;;;;;;;;;;;;;;;;4995637;28;19914;-80
2022/01/31 01:36:07;;;;;;;;;;;;;;;;;;4994109;28;19917;-80
2022/01/31 01:38:32;;;;;;;;;;;;;;;;;;4994395;28;19924;-79
2022/01/31 01:40:59;;;;;;;;;;;;;;;;;;4994898;28;19913;-79
2022/01/31 01:43:25;;;;;;;;;;;;;;;;;;4995344;28;19910;-79
2022/01/31 01:45:51;;;;;;;;;;;;;;;;;;4995060;28;19916;-79
2022/01/31 01:48:17;;;;;;;;;;;;;;;;;;4993819;28;19949;-80
2022/01/31 01:50:43;;;;;;;;;;;;;;;;;;4994718;28;19914;-80
2022/01/31 01:53:09;;;;;;;;;;;;;;;;;;4994936;28;20362;-79
2022/01/31 01:55:34;;;;;;;;;;;;;;;;;;4994906;28;19914;-79
2022/01/31 01:58:00;;;;;;;;;;;;;;;;;;4994771;28;19960;-80
2022/01/31 02:00:28;;;;;;;;;;;;;;;;;;4995066;28;19932;-79
2022/01/31 02:02:54;;;;;;;;;;;;;;;;;;4994371;28;19976;-79
2022/01/31 02:05:20;;;;;;;;;;;;;;;;;;4993296;28;19929;-79
2022/01/31 02:07:46;;;;;;;;;;;;;;;;;;4994074;28;19918;-79
2022/01/31 02:10:12;;;;;;;;;;;;;;;;;;4994978;28;20293;-79
2022/01/31 02:12:38;;;;;;;;;;;;;;;;;;4992443;28;19906;-80
2022/01/31 02:15:04;;;;;;;;;;;;;;;;;;4994691;28;19953;-79
2022/01/31 02:17:29;;;;;;;;;;;;;;;;;;4994562;28;19914;-79
2022/01/31 02:19:55;;;;;;;;;;;;;;;;;;4994472;28;19972;-79
2022/01/31 02:22:21;;;;;;;;;;;;;;;;;;4994302;28;19976;-80
2022/01/31 02:24:47;;;;;;;;;;;;;;;;;;4994518;28;19956;-80
2022/01/31 02:27:13;;;;;;;;;;;;;;;;;;4994225;28;19914;-79
2022/01/31 02:29:39;;;;;;;;;;;;;;;;;;4994338;28;20385;-80
2022/01/31 02:32:05;;;;;;;;;;;;;;;;;;4994307;28;19910;-80
2022/01/31 02:34:31;;;;;;;;;;;;;;;;;;4994369;28;19910;-80
2022/01/31 02:37:00;;;;;;;;;;;;;;;;;;4993855;28;19979;-79
2022/01/31 02:39:25;;;;;;;;;;;;;;;;;;4994511;28;20377;-80
2022/01/31 02:41:51;;;;;;;;;;;;;;;;;;4992658;28;19963;-79
2022/01/31 02:44:17;;;;;;;;;;;;;;;;;;4992589;28;19918;-80
2022/01/31 02:46:48;;;;;;;;;;;;;;;;;;4994145;28;19936;-79
2022/01/31 02:49:15;;;;;;;;;;;;;;;;;;4994065;28;19910;-79
2022/01/31 02:51:46;;;;;;;;;;;;;;;;;;4993612;28;20049;-80
2022/01/31 02:54:12;;;;;;;;;;;;;;;;;;4993836;28;19910;-79
2022/01/31 02:56:40;;;;;;;;;;;;;;;;;;4994047;28;19924;-79
2022/01/31 02:59:06;;;;;;;;;;;;;;;;;;4993632;28;19913;-79
2022/01/31 03:01:32;;;;;;;;;;;;;;;;;;4993613;28;20266;-79
2022/01/31 03:03:58;;;;;;;;;;;;;;;;;;4993717;28;19914;-79
2022/01/31 03:06:23;;;;;;;;;;;;;;;;;;4992963;28;19972;-80
2022/01/31 03:08:49;;;;;;;;;;;;;;;;;;4993590;28;19921;-79
2022/01/31 03:11:15;;;;;;;;;;;;;;;;;;4993547;28;19910;-80
2022/01/31 03:13:41;;;;;;;;;;;;;;;;;;4992916;28;19952;-80
2022/01/31 03:16:07;;;;;;;;;;;;;;;;;;4993484;28;20008;-79
2022/01/31 03:18:33;;;;;;;;;;;;;;;;;;4993154;28;19917;-80
2022/01/31 03:20:59;;;;;;;;;;;;;;;;;;4991654;28;19921;-80
2022/01/31 03:23:25;;;;;;;;;;;;;;;;;;4993389;28;19917;-79
2022/01/31 03:25:51;;;;;;;;;;;;;;;;;;4993119;28;19906;-79
2022/01/31 03:28:17;;;;;;;;;;;;;;;;;;4993749;28;19932;-79
2022/01/31 03:30:43;;;;;;;;;;;;;;;;;;4993521;28;19960;-80
2022/01/31 03:33:08;;;;;;;;;;;;;;;;;;4993160;28;19910;-80
2022/01/31 03:35:34;;;;;;;;;;;;;;;;;;4992600;28;20408;-79
2022/01/31 03:38:00;;;;;;;;;;;;;;;;;;4992256;28;19921;-79
2022/01/31 03:40:26;;;;;;;;;;;;;;;;;;4993321;28;20000;-80
2022/01/31 03:42:52;;;;;;;;;;;;;;;;;;4993167;28;19920;-79
2022/01/31 03:45:19;;;;;;;;;;;;;;;;;;4993174;28;19913;-80
2022/01/31 03:47:46;;;;;;;;;;;;;;;;;;4993111;28;20291;-80
2022/01/31 03:50:12;;;;;;;;;;;;;;;;;;4992836;28;19910;-80
2022/01/31 03:52:38;;;;;;;;;;;;;;;;;;4992701;28;19963;-79
2022/01/31 03:55:04;;;;;;;;;;;;;;;;;;4992833;28;19956;-80
2022/01/31 03:57:31;;;;;;;;;;;;;;;;;;4993200;28;19910;-79
2022/01/31 03:59:57;;;;;;;;;;;;;;;;;;4992646;28;19920;-80
2022/01/31 04:02:23;;;;;;;;;;;;;;;;;;4991617;28;20301;-80
2022/01/31 04:04:49;;;;;;;;;;;;;;;;;;4992908;28;20362;-80
2022/01/31 04:07:15;;;;;;;;;;;;;;;;;;4990342;28;19932;-80
2022/01/31 04:09:41;;;;;;;;;;;;;;;;;;4992348;28;19910;-80
2022/01/31 04:12:06;;;;;;;;;;;;;;;;;;4992721;28;20282;-80
2022/01/31 04:14:32;;;;;;;;;;;;;;;;;;4992822;28;19910;-79
2022/01/31 04:16:59;;;;;;;;;;;;;;;;;;4992697;28;19968;-80
2022/01/31 04:19:25;;;;;;;;;;;;;;;;;;4992691;28;19921;-79
2022/01/31 04:21:51;;;;;;;;;;;;;;;;;;4992281;28;19914;-80
2022/01/31 04:24:31;;;;;;;;;;;;;;;;;;4992554;28;20389;-80
2022/01/31 04:27:05;;;;;;;;;;;;;;;;;;4992663;28;19905;-80
2022/01/31 04:29:33;;;;;;;;;;;;;;;;;;4992823;28;19910;-80
2022/01/31 04:31:58;;;;;;;;;;;;;;;;;;4992472;28;19917;-80
2022/01/31 04:34:24;;;;;;;;;;;;;;;;;;4992191;28;19914;-79
2022/01/31 04:36:50;;;;;;;;;;;;;;;;;;4996949;28;19933;-79
2022/01/31 04:39:18;;;;;;;;;;;;;;;;;;4996239;28;20389;-80
2022/01/31 04:41:44;;;;;;;;;;;;;;;;;;4996554;28;19992;-80
2022/01/31 04:44:11;;;;;;;;;;;;;;;;;;4996640;28;19964;-80
2022/01/31 04:46:37;;;;;;;;;;;;;;;;;;4996478;28;20382;-79
2022/01/31 04:49:02;;;;;;;;;;;;;;;;;;4995528;28;19913;-79
2022/01/31 04:51:28;;;;;;;;;;;;;;;;;;4996289;28;19914;-79
2022/01/31 04:53:54;;;;;;;;;;;;;;;;;;4996211;28;20270;-80
2022/01/31 04:56:20;;;;;;;;;;;;;;;;;;4995726;28;19918;-80
2022/01/31 04:58:46;;;;;;;;;;;;;;;;;;4995991;28;19914;-79
2022/01/31 05:01:12;;;;;;;;;;;;;;;;;;4995609;28;20271;-79
2022/01/31 05:03:38;;;;;;;;;;;;;;;;;;4995887;28;19917;-79
2022/01/31 05:06:04;;;;;;;;;;;;;;;;;;4995523;28;19922;-80
2022/01/31 05:08:30;;;;;;;;;;;;;;;;;;4994632;28;19917;-80
2022/01/31 05:10:56;;;;;;;;;;;;;;;;;;4995876;28;19910;-80
2022/01/31 05:13:22;;;;;;;;;;;;;;;;;;4994795;28;19909;-81
2022/01/31 05:15:53;;;;;;;;;;;;;;;;;;4995778;28;20048;-81
2022/01/31 05:18:18;;;;;;;;;;;;;;;;;;4994803;28;19922;-79
2022/01/31 05:20:44;;;;;;;;;;;;;;;;;;4995526;28;19910;-78
2022/01/31 05:23:10;;;;;;;;;;;;;;;;;;4994338;28;19910;-79
2022/01/31 05:25:36;;;;;;;;;;;;;;;;;;4995671;28;19910;-80
2022/01/31 05:28:02;;;;;;;;;;;;;;;;;;4995575;28;19910;-80
2022/01/31 05:30:28;;;;;;;;;;;;;;;;;;4995098;28;20440;-80
2022/01/31 05:32:54;;;;;;;;;;;;;;;;;;4994424;28;20025;-80
2022/01/31 05:35:20;;;;;;;;;;;;;;;;;;4993999;28;19914;-80
2022/01/31 05:37:46;;;;;;;;;;;;;;;;;;4993800;28;20409;-79
2022/01/31 05:40:12;;;;;;;;;;;;;;;;;;4995408;28;19910;-80
2022/01/31 05:42:37;;;;;;;;;;;;;;;;;;4994643;28;19914;-80
2022/01/31 05:45:03;;;;;;;;;;;;;;;;;;4995185;28;19973;-79
2022/01/31 05:47:29;;;;;;;;;;;;;;;;;;4993856;28;19914;-77
2022/01/31 05:49:55;;;;;;;;;;;;;;;;;;4994671;28;20310;-78
2022/01/31 05:52:21;;;;;;;;;;;;;;;;;;4994098;28;19964;-77
2022/01/31 05:54:47;;;;;;;;;;;;;;;;;;4995467;28;20437;-77
2022/01/31 05:57:13;;;;;;;;;;;;;;;;;;4994750;28;20302;-77
2022/01/31 05:59:39;;;;;;;;;;;;;;;;;;4993702;28;19928;-77
2022/01/31 06:02:05;;;;;;;;;;;;;;;;;;4994565;28;19977;-77
2022/01/31 06:04:31;;;;;;;;;;;;;;;;;;4993662;28;19922;-77
2022/01/31 06:07:00;;;;;;;;;;;;;;;;;;4993476;28;19930;-77
2022/01/31 06:09:27;;;;;;;;;;;;;;;;;;4993432;28;20001;-77
2022/01/31 06:11:53;;;;;;;;;;;;;;;;;;4994168;28;20429;-77
2022/01/31 06:14:19;;;;;;;;;;;;;;;;;;4993696;28;20033;-79
2022/01/31 06:16:45;;;;;;;;;;;;;;;;;;4994251;28;19910;-79
2022/01/31 06:19:11;;;;;;;;;;;;;;;;;;4998039;28;19914;-79
2022/01/31 06:21:36;;;;;;;;;;;;;;;;;;4994662;28;19917;-76
2022/01/31 07:14:00;;;;;;;;;;;;;;;;;;5046107;28;19982;-77
2022/01/31 07:16:09;;;;;;;;;;;;;;;;;;5040316;28;20360;-76
2022/01/31 07:18:36;;;;;;;;;;;;;;;;;;5053525;28;19916;-75
2022/01/31 07:21:02;;;;;;;;;;;;;;;;;;5051415;28;20338;-78
2022/01/31 07:23:39;;;;;;;;;;;;;;;;;;5053198;28;20334;-78
2022/01/31 07:26:05;;;;;;;;;;;;;;;;;;5042831;28;19917;-75
2022/01/31 07:28:31;;;;;;;;;;;;;;;;;;5052692;28;19919;-75
2022/01/31 07:30:57;;;;;;;;;;;;;;;;;;5052276;28;19944;-75
2022/01/31 07:33:23;;;;;;;;;;;;;;;;;;5047725;28;19979;-77
2022/01/31 07:35:49;;;;;;;;;;;;;;;;;;5052575;28;19913;-75
2022/01/31 07:38:15;;;;;;;;;;;;;;;;;;5050589;28;20433;-75
2022/01/31 07:40:41;;;;;;;;;;;;;;;;;;5052515;28;19960;-75
2022/01/31 07:43:07;;;;;;;;;;;;;;;;;;5049573;28;20372;-76
2022/01/31 07:45:33;;;;;;;;;;;;;;;;;;5041041;28;19909;-75
2022/01/31 07:47:59;;;;;;;;;;;;;;;;;;5047683;28;19959;-75
2022/01/31 07:50:24;;;;;;;;;;;;;;;;;;5050152;28;19909;-76
2022/01/31 07:52:50;;;;;;;;;;;;;;;;;;5050047;28;19909;-78
2022/01/31 07:55:17;;;;;;;;;;;;;;;;;;5048868;28;20396;-78
2022/01/31 07:57:45;;;;;;;;;;;;;;;;;;5044845;28;19925;-75
2022/01/31 08:00:11;;;;;;;;;;;;;;;;;;5053096;28;19913;-76
2022/01/31 08:02:37;;;;;;;;;;;;;;;;;;5052321;28;20412;-78
2022/01/31 08:05:03;;;;;;;;;;;;;;;;;;5047537;28;19909;-78
2022/01/31 08:07:29;;;;;;;;;;;;;;;;;;5054903;28;19936;-78
2022/01/31 08:09:55;;;;;;;;;;;;;;;;;;5051960;28;19913;-78
2022/01/31 08:12:22;;;;;;;;;;;;;;;;;;5043301;28;19921;-78
2022/01/31 08:14:48;;;;;;;;;;;;;;;;;;5034229;28;20063;-78
2022/01/31 08:17:14;;;;;;;;;;;;;;;;;;5036933;28;20376;-78
2022/01/31 08:19:40;;;;;;;;;;;;;;;;;;5032620;28;19917;-78
2022/01/31 08:22:06;;;;;;;;;;;;;;;;;;5036578;28;19913;-78
2022/01/31 08:24:32;;;;;;;;;;;;;;;;;;5034394;28;19909;-78
2022/01/31 08:26:58;;;;;;;;;;;;;;;;;;5036210;28;20395;-78
2022/01/31 08:29:36;;;;;;;;;;;;;;;;;;5034256;28;19920;-78
2022/01/31 08:32:06;;;;;;;;;;;;;;;;;;5035157;28;19910;-78
2022/01/31 08:37:21;;;;;;;;;;;;;;;;;;4976585;28;20029;-78
2022/01/31 08:39:47;;;;;;;;;;;;;;;;;;4975101;28;20005;-78
2022/01/31 08:42:13;;;;;;;;;;;;;;;;;;4973978;28;20565;-78
2022/01/31 08:44:39;;;;;;;;;;;;;;;;;;4974844;28;19910;-78
2022/01/31 08:47:05;;;;;;;;;;;;;;;;;;4985368;28;20673;-78
2022/01/31 08:49:35;;;;;;;;;;;;;;;;;;4974432;28;20018;-77
2022/01/31 08:52:01;;;;;;;;;;;;;;;;;;4974913;28;19910;-78
2022/01/31 08:54:27;;;;;;;;;;;;;;;;;;4973153;28;19948;-78
2022/01/31 08:56:53;;;;;;;;;;;;;;;;;;4973549;28;19978;-78
2022/01/31 08:59:22;;;;;;;;;;;;;;;;;;4972965;28;20008;-78
2022/01/31 09:02:04;;;;;;;;;;;;;;;;;;4975038;28;19910;-78
2022/01/31 09:04:41;;;;;;;;;;;;;;;;;;4973182;28;19921;-78
2022/01/31 09:07:06;;;;;;;;;;;;;;;;;;4984377;28;19930;-78
2022/01/31 09:09:32;;;;;;;;;;;;;;;;;;4972664;28;19917;-78
2022/01/31 09:11:59;;;;;;;;;;;;;;;;;;4974902;28;19922;-76
2022/01/31 09:14:25;;;;;;;;;;;;;;;;;;5005923;28;19909;-76
2022/01/31 09:16:50;;;;;;;;;;;;;;;;;;5034679;28;19931;-78
2022/01/31 09:19:16;;;;;;;;;;;;;;;;;;5033463;28;20379;-79
2022/01/31 09:21:42;;;;;;;;;;;;;;;;;;5034482;28;19916;-79
2022/01/31 09:24:08;;;;;;;;;;;;;;;;;;5035373;28;19909;-76
2022/01/31 09:26:36;;;;;;;;;;;;;;;;;;5031600;28;20709;-79
2022/01/31 09:29:02;;;;;;;;;;;;;;;;;;5034620;28;20334;-78
2022/01/31 09:31:28;;;;;;;;;;;;;;;;;;5033379;28;19913;-78
2022/01/31 09:33:54;;;;;;;;;;;;;;;;;;5035537;28;19959;-79
2022/01/31 09:36:22;;;;;;;;;;;;;;;;;;5033163;28;19914;-78
2022/01/31 09:38:48;;;;;;;;;;;;;;;;;;5034891;28;19913;-78
2022/01/31 09:41:18;;;;;;;;;;;;;;;;;;5034092;28;20229;-79
2022/01/31 09:46:34;;;;;;;;;;;;;;;;;;5033455;28;19983;-78
2022/01/31 09:49:00;;;;;;;;;;;;;;;;;;5034762;28;19953;-78
2022/01/31 09:51:25;;;;;;;;;;;;;;;;;;5033239;28;20454;-78
2022/01/31 09:53:51;;;;;;;;;;;;;;;;;;5035116;28;19995;-79
2022/01/31 09:56:19;;;;;;;;;;;;;;;;;;5033561;28;19917;-78
2022/01/31 09:58:45;;;;;;;;;;;;;;;;;;5034740;28;19920;-78
2022/01/31 10:01:11;;;;;;;;;;;;;;;;;;5035568;28;19909;-78
2022/01/31 10:03:37;;;;;;;;;;;;;;;;;;5031837;28;19909;-78
2022/01/31 10:06:03;;;;;;;;;;;;;;;;;;5036088;28;19908;-78
2022/01/31 10:08:29;;;;;;;;;;;;;;;;;;5033364;28;19913;-79
2022/01/31 10:11:00;;;;;;;;;;;;;;;;;;5034356;28;19909;-78
2022/01/31 10:16:32;;;;;;;;;;;;;;;;;;5033535;28;19917;-78
2022/01/31 10:18:58;;;;;;;;;;;;;;;;;;5032165;28;20416;-76
2022/01/31 10:21:24;;;;;;;;;;;;;;;;;;5034119;28;19963;-76
2022/01/31 10:23:50;;;;;;;;;;;;;;;;;;5030328;28;20000;-77
2022/01/31 10:26:16;;;;;;;;;;;;;;;;;;5032755;28;20377;-77
2022/01/31 10:28:41;;;;;;;;;;;;;;;;;;5032538;28;19955;-76
2022/01/31 10:31:07;;;;;;;;;;;;;;;;;;5032580;28;19955;-79
2022/01/31 10:33:35;;;;;;;;;;;;;;;;;;5033388;28;19909;-79
2022/01/31 10:36:01;;;;;;;;;;;;;;;;;;5031484;28;19917;-79
2022/01/31 10:38:34;;;;;;;;;;;;;;;;;;5034109;28;20499;-79
2022/01/31 10:50:40;;;;;;;;;;;;;;;;;;5032454;28;19909;-79
2022/01/31 10:52:05;;;;;;;;;;;;;;;;;;5031833;28;19923;-76
2022/01/31 10:56:59;;;;;;;;;;;;;;;;;;5030972;28;19909;-79
2022/01/31 10:59:25;;;;;;;;;;;;;;;;;;5026538;28;19996;-80
2022/01/31 11:01:51;;;;;;;;;;;;;;;;;;5032924;28;20016;-80
2022/01/31 11:04:17;;;;;;;;;;;;;;;;;;5030743;28;19925;-79
2022/01/31 11:06:43;;;;;;;;;;;;;;;;;;5033090;28;19909;-77
2022/01/31 11:09:09;;;;;;;;;;;;;;;;;;5031369;28;19920;-79
2022/01/31 11:11:35;;;;;;;;;;;;;;;;;;5032771;28;19928;-79
2022/01/31 11:14:01;;;;;;;;;;;;;;;;;;5030634;28;20273;-80
2022/01/31 11:16:27;;;;;;;;;;;;;;;;;;5032729;28;19931;-80
2022/01/31 11:18:53;;;;;;;;;;;;;;;;;;5031318;28;19996;-79
2022/01/31 11:21:27;;;;;;;;;;;;;;;;;;5031362;28;20461;-79
2022/01/31 11:23:53;;;;;;;;;;;;;;;;;;5031103;28;20007;-79
2022/01/31 11:26:20;;;;;;;;;;;;;;;;;;5031846;28;19995;-79
2022/01/31 11:28:46;;;;;;;;;;;;;;;;;;5031598;28;19909;-78
2022/01/31 11:31:11;;;;;;;;;;;;;;;;;;5031259;28;19915;-78
2022/01/31 11:33:37;;;;;;;;;;;;;;;;;;5031704;28;20291;-81
2022/01/31 11:36:03;;;;;;;;;;;;;;;;;;5030643;28;19913;-77
2022/01/31 11:38:29;;;;;;;;;;;;;;;;;;5031729;28;19967;-80
2022/01/31 11:40:55;;;;;;;;;;;;;;;;;;5030606;28;19917;-78
2022/01/31 11:43:21;;;;;;;;;;;;;;;;;;5031699;28;20285;-78
2022/01/31 11:45:47;;;;;;;;;;;;;;;;;;5030332;28;19910;-81
2022/01/31 11:48:14;;;;;;;;;;;;;;;;;;5031505;28;19909;-78
2022/01/31 11:50:40;;;;;;;;;;;;;;;;;;5030558;28;19920;-79
2022/01/31 11:53:06;;;;;;;;;;;;;;;;;;5030566;28;19909;-79
2022/01/31 11:55:33;;;;;;;;;;;;;;;;;;5030244;28;19917;-77
2022/01/31 11:57:59;;;;;;;;;;;;;;;;;;5031050;28;19917;-78
2022/01/31 12:00:26;;;;;;;;;;;;;;;;;;5031576;28;19917;-79
2022/01/31 12:02:52;;;;;;;;;;;;;;;;;;5028572;28;19909;-78
2022/01/31 12:05:19;;;;;;;;;;;;;;;;;;5031571;28;19916;-77
2022/01/31 12:07:45;;;;;;;;;;;;;;;;;;5029380;28;19920;-77
2022/01/31 12:10:11;;;;;;;;;;;;;;;;;;5031483;28;19913;-77
2022/01/31 12:12:51;;;;;;;;;;;;;;;;;;5029627;28;19927;-78
2022/01/31 12:15:19;;;;;;;;;;;;;;;;;;5031047;28;20291;-78
2022/01/31 12:21:52;;;;;;;;;;;;;;;;;;5031619;28;19917;-77
2022/01/31 12:23:09;;;;;;;;;;;;;;;;;;5028796;28;20008;-77
2022/01/31 12:25:35;;;;;;;;;;;;;;;;;;5032488;28;20031;-75
2022/01/31 12:28:01;;;;;;;;;;;;;;;;;;5028730;28;20331;-78
2022/01/31 12:30:26;;;;;;;;;;;;;;;;;;5033125;28;19915;-77
2022/01/31 12:32:52;;;;;;;;;;;;;;;;;;5029988;28;19910;-77
2022/01/31 12:35:18;;;;;;;;;;;;;;;;;;5032487;28;19917;-77
2022/01/31 12:37:44;;;;;;;;;;;;;;;;;;5030351;28;19960;-77
2022/01/31 12:40:14;;;;;;;;;;;;;;;;;;5032727;28;20288;-76
2022/01/31 12:45:08;;;;;;;;;;;;;;;;;;5029331;28;19917;-77
2022/01/31 12:47:34;;;;;;;;;;;;;;;;;;5028268;28;20007;-77
2022/01/31 12:50:00;;;;;;;;;;;;;;;;;;5022727;28;20369;-77
2022/01/31 12:52:26;;;;;;;;;;;;;;;;;;5030314;28;19913;-77
2022/01/31 12:54:53;;;;;;;;;;;;;;;;;;5032307;28;19909;-78
2022/01/31 12:57:19;;;;;;;;;;;;;;;;;;5031719;28;19913;-77
2022/01/31 12:59:45;;;;;;;;;;;;;;;;;;5035879;28;19913;-77
2022/01/31 13:02:11;;;;;;;;;;;;;;;;;;5035371;28;19916;-77
2022/01/31 13:04:37;;;;;;;;;;;;;;;;;;5030241;28;19932;-77
2022/01/31 13:07:04;;;;;;;;;;;;;;;;;;5035135;28;19913;-76
2022/01/31 13:09:30;;;;;;;;;;;;;;;;;;5033744;28;20272;-78
2022/01/31 13:11:56;;;;;;;;;;;;;;;;;;5035343;28;19924;-77
2022/01/31 13:14:23;;;;;;;;;;;;;;;;;;5031939;28;19952;-77
2022/01/31 13:17:10;;;;;;;;;;;;;;;;;;5032987;28;19909;-78
2022/01/31 13:19:36;;;;;;;;;;;;;;;;;;5032962;28;20379;-76
2022/01/31 13:22:02;;;;;;;;;;;;;;;;;;5034045;28;19916;-77
2022/01/31 13:24:28;;;;;;;;;;;;;;;;;;5033150;28;19909;-77
2022/01/31 13:26:54;;;;;;;;;;;;;;;;;;5035029;28;19948;-77
2022/01/31 13:29:20;;;;;;;;;;;;;;;;;;5032247;28;19923;-77
2022/01/31 13:31:46;;;;;;;;;;;;;;;;;;5035234;28;20365;-77
2022/01/31 13:34:11;;;;;;;;;;;;;;;;;;5035100;28;19916;-78
2022/01/31 13:36:37;;;;;;;;;;;;;;;;;;5031570;28;19945;-77
2022/01/31 13:39:03;;;;;;;;;;;;;;;;;;5034967;28;19917;-77
2022/01/31 13:41:29;;;;;;;;;;;;;;;;;;5033206;28;19962;-77
2022/01/31 13:43:55;;;;;;;;;;;;;;;;;;5034749;28;19921;-76
2022/01/31 13:46:26;;;;;;;;;;;;;;;;;;5030299;28;20384;-77
2022/01/31 13:51:25;;;;;;;;;;;;;;;;;;5034711;28;19909;-77
2022/01/31 13:53:51;;;;;;;;;;;;;;;;;;5033308;28;19909;-77
2022/01/31 13:56:17;;;;;;;;;;;;;;;;;;5034482;28;20376;-77
2022/01/31 13:58:43;;;;;;;;;;;;;;;;;;5033625;28;19919;-77
2022/01/31 14:01:09;;;;;;;;;;;;;;;;;;5034420;28;19915;-77
2022/01/31 14:03:34;;;;;;;;;;;;;;;;;;5028103;28;20308;-76
2022/01/31 14:06:00;;;;;;;;;;;;;;;;;;5033040;28;19924;-77
2022/01/31 14:08:26;;;;;;;;;;;;;;;;;;5031994;28;19909;-77
2022/01/31 14:10:53;;;;;;;;;;;;;;;;;;5032427;28;19913;-77
2022/01/31 14:13:19;;;;;;;;;;;;;;;;;;5033653;28;20437;-77
2022/01/31 14:15:47;;;;;;;;;;;;;;;;;;5031842;28;20008;-76
2022/01/31 14:18:13;;;;;;;;;;;;;;;;;;5034301;28;19996;-76
2022/01/31 14:20:38;;;;;;;;;;;;;;;;;;5031341;28;20000;-77
2022/01/31 14:23:04;;;;;;;;;;;;;;;;;;5033337;28;19913;-77
2022/01/31 14:25:30;;;;;;;;;;;;;;;;;;5032370;28;19920;-77
2022/01/31 14:27:56;;;;;;;;;;;;;;;;;;5034592;28;19913;-77
2022/01/31 14:30:22;;;;;;;;;;;;;;;;;;5032045;28;19960;-77
2022/01/31 14:32:48;;;;;;;;;;;;;;;;;;5033552;28;19909;-77
2022/01/31 14:35:16;;;;;;;;;;;;;;;;;;5031258;28;20426;-77
2022/01/31 14:37:42;;;;;;;;;;;;;;;;;;5014017;28;20381;-77
2022/01/31 14:40:24;;;;;;;;;;;;;;;;;;5030954;28;19913;-77
2022/01/31 14:42:57;;;;;;;;;;;;;;;;;;5031371;28;20394;-78
2022/01/31 14:48:07;;;;;;;;;;;;;;;;;;5017596;28;19916;-78
2022/01/31 14:50:35;;;;;;;;;;;;;;;;;;5031500;28;19913;-77
2022/01/31 14:53:01;;;;;;;;;;;;;;;;;;5031409;28;20354;-80
2022/01/31 14:55:27;;;;;;;;;;;;;;;;;;5031030;28;20076;-78
2022/01/31 14:57:53;;;;;;;;;;;;;;;;;;5031344;28;19958;-78
2022/01/31 15:00:19;;;;;;;;;;;;;;;;;;5031048;28;19953;-78
2022/01/31 15:02:45;;;;;;;;;;;;;;;;;;5028957;28;20391;-77
2022/01/31 15:05:11;;;;;;;;;;;;;;;;;;5031797;28;19963;-78
2022/01/31 15:07:36;;;;;;;;;;;;;;;;;;5029719;28;19909;-77
2022/01/31 15:10:02;;;;;;;;;;;;;;;;;;5031874;28;19971;-78
2022/01/31 15:12:28;;;;;;;;;;;;;;;;;;5030015;28;19927;-78
2022/01/31 15:14:54;;;;;;;;;;;;;;;;;;5031677;28;19915;-77
2022/01/31 15:17:22;;;;;;;;;;;;;;;;;;5030907;28;20258;-78
2022/01/31 15:19:48;;;;;;;;;;;;;;;;;;5030492;28;20453;-78
2022/01/31 15:22:13;;;;;;;;;;;;;;;;;;5031392;28;19917;-78
2022/01/31 15:24:41;;;;;;;;;;;;;;;;;;5032376;28;19909;-78
2022/01/31 15:27:06;;;;;;;;;;;;;;;;;;5031382;28;19913;-78
2022/01/31 15:29:32;;;;;;;;;;;;;;;;;;5033003;28;19955;-79
2022/01/31 15:31:58;;;;;;;;;;;;;;;;;;5033200;28;19909;-78
2022/01/31 15:34:24;;;;;;;;;;;;;;;;;;5030510;28;19936;-78
2022/01/31 15:36:50;;;;;;;;;;;;;;;;;;5031832;28;20376;-78
2022/01/31 15:39:16;;;;;;;;;;;;;;;;;;5031295;28;19913;-78
2022/01/31 15:41:44;;;;;;;;;;;;;;;;;;5032624;28;19940;-78
2022/01/31 15:44:25;;;;;;;;;;;;;;;;;;5030629;28;19909;-78
2022/01/31 15:46:51;;;;;;;;;;;;;;;;;;5031157;28;19916;-78
2022/01/31 15:49:17;;;;;;;;;;;;;;;;;;5031208;28;20011;-79
2022/01/31 15:51:43;;;;;;;;;;;;;;;;;;5032461;28;19914;-78
2022/01/31 15:54:09;;;;;;;;;;;;;;;;;;5029990;28;19928;-78
2022/01/31 15:56:35;;;;;;;;;;;;;;;;;;5033091;28;19924;-78
2022/01/31 15:59:01;;;;;;;;;;;;;;;;;;5030271;28;19917;-78
2022/01/31 16:01:28;;;;;;;;;;;;;;;;;;5030706;28;20346;-77
2022/01/31 16:03:54;;;;;;;;;;;;;;;;;;5031035;28;20743;-78
2022/01/31 16:06:20;;;;;;;;;;;;;;;;;;5030819;28;19913;-78
2022/01/31 16:08:46;;;;;;;;;;;;;;;;;;5032112;28;19923;-75
2022/01/31 16:11:11;;;;;;;;;;;;;;;;;;5029421;28;21237;-75
2022/01/31 16:13:43;;;;;;;;;;;;;;;;;;5031753;28;19909;-75
2022/01/31 16:16:09;;;;;;;;;;;;;;;;;;5028837;28;19951;-75
2022/01/31 16:18:35;;;;;;;;;;;;;;;;;;5032310;28;19960;-75
2022/01/31 16:21:01;;;;;;;;;;;;;;;;;;5031591;28;19924;-75
2022/01/31 16:23:28;;;;;;;;;;;;;;;;;;5031716;28;19916;-75
2022/01/31 16:25:55;;;;;;;;;;;;;;;;;;5032023;28;19917;-75
2022/01/31 16:28:21;;;;;;;;;;;;;;;;;;5031618;28;19935;-75
2022/01/31 16:30:47;;;;;;;;;;;;;;;;;;5033671;28;20330;-75
2022/01/31 16:33:13;;;;;;;;;;;;;;;;;;5036559;28;20007;-75
2022/01/31 16:35:39;;;;;;;;;;;;;;;;;;5035769;28;19916;-75
2022/01/31 16:38:07;;;;;;;;;;;;;;;;;;5036291;28;19916;-75
2022/01/31 16:40:33;;;;;;;;;;;;;;;;;;5036009;28;20391;-75
2022/01/31 16:42:59;;;;;;;;;;;;;;;;;;5035785;28;19913;-76
2022/01/31 16:45:25;;;;;;;;;;;;;;;;;;5035564;28;19916;-75
2022/01/31 16:47:52;;;;;;;;;;;;;;;;;;5035779;28;20471;-75
2022/01/31 16:50:18;;;;;;;;;;;;;;;;;;5035387;28;19909;-75
2022/01/31 16:52:44;;;;;;;;;;;;;;;;;;5034968;28;19917;-76
2022/01/31 16:55:09;;;;;;;;;;;;;;;;;;5035122;28;19909;-76
2022/01/31 16:57:35;;;;;;;;;;;;;;;;;;5036065;28;19921;-75
2022/01/31 17:00:01;;;;;;;;;;;;;;;;;;5035531;28;19925;-75
2022/01/31 17:02:27;;;;;;;;;;;;;;;;;;5034949;28;19915;-75
2022/01/31 17:04:53;;;;;;;;;;;;;;;;;;5034661;28;20327;-78
2022/01/31 17:07:19;;;;;;;;;;;;;;;;;;5033590;28;20434;-78
2022/01/31 17:09:45;;;;;;;;;;;;;;;;;;5035925;28;19932;-78
2022/01/31 17:12:13;;;;;;;;;;;;;;;;;;5035729;28;19944;-77
2022/01/31 17:14:39;;;;;;;;;;;;;;;;;;5035590;28;20372;-78
2022/01/31 17:17:07;;;;;;;;;;;;;;;;;;5035394;28;19913;-78
2022/01/31 17:19:33;;;;;;;;;;;;;;;;;;5034080;28;19913;-78
2022/01/31 17:21:59;;;;;;;;;;;;;;;;;;5033605;28;19997;-78
2022/01/31 17:24:25;;;;;;;;;;;;;;;;;;5034665;28;20384;-80
2022/01/31 17:26:50;;;;;;;;;;;;;;;;;;5035559;28;19913;-78
2022/01/31 17:29:17;;;;;;;;;;;;;;;;;;5034720;28;19915;-80
2022/01/31 17:31:43;;;;;;;;;;;;;;;;;;5036050;28;19955;-80
2022/01/31 17:34:09;;;;;;;;;;;;;;;;;;5035520;28;19909;-78
2022/01/31 17:36:35;;;;;;;;;;;;;;;;;;5035541;28;19913;-78
2022/01/31 17:39:01;;;;;;;;;;;;;;;;;;5030282;28;19913;-80
2022/01/31 17:41:28;;;;;;;;;;;;;;;;;;5034252;28;19913;-81
2022/01/31 17:43:54;;;;;;;;;;;;;;;;;;5034856;28;19909;-78
2022/01/31 17:46:20;;;;;;;;;;;;;;;;;;5033693;28;19919;-79
2022/01/31 17:48:46;;;;;;;;;;;;;;;;;;5034646;28;19909;-78
2022/01/31 17:51:12;;;;;;;;;;;;;;;;;;5034027;28;19909;-80
2022/01/31 17:53:38;;;;;;;;;;;;;;;;;;5034065;28;19917;-79
2022/01/31 17:56:04;;;;;;;;;;;;;;;;;;5033838;28;19928;-79
2022/01/31 17:58:30;;;;;;;;;;;;;;;;;;5034130;28;19959;-79
2022/01/31 18:00:59;;;;;;;;;;;;;;;;;;5034356;28;19909;-79